sensor_id;sensor_type;location;lat;lon;timestamp;P1;durP1;ratioP1;P2;durP2;ratioP2
595;SDS011;19946;49.306;11.350;2023-04-15T00:11:22;2.30;;;2.30;;
595;SDS011;19946;49.306;11.350;2023-04-15T00:14:23;1.80;;;1.80;;
595;SDS011;19946;49.306;11.350;2023-04-15T00:17:25;1.53;;;1.53;;
595;SDS011;19946;49.306;11.350;2023-04-15T00:20:27;1.00;;;1.00;;
595;SDS011;19946;49.306;11.350;2023-04-15T00:23:28;1.20;;;1.20;;
595;SDS011;19946;49.306;11.350;2023-04-15T00:26:29;1.10;;;1.10;;
595;SDS011;19946;49.306;11.350;2023-04-15T00:29:30;0.90;;;0.90;;
595;SDS011;19946;49.306;11.350;2023-04-15T00:32:30;0.97;;;0.97;;
595;SDS011;19946;49.306;11.350;2023-04-15T00:35:31;0.90;;;0.90;;
595;SDS011;19946;49.306;11.350;2023-04-15T00:38:32;1.00;;;1.00;;
595;SDS011;19946;49.306;11.350;2023-04-15T00:41:32;1.20;;;1.20;;
595;SDS011;19946;49.306;11.350;2023-04-15T00:44:33;1.30;;;1.30;;
595;SDS011;19946;49.306;11.350;2023-04-15T00:47:34;1.47;;;1.47;;
595;SDS011;19946;49.306;11.350;2023-04-15T00:50:36;1.30;;;1.30;;
595;SDS011;19946;49.306;11.350;2023-04-15T01:03:33;0.80;;;0.80;;
595;SDS011;19946;49.306;11.350;2023-04-15T01:06:35;0.77;;;0.77;;
595;SDS011;19946;49.306;11.350;2023-04-15T01:09:37;1.30;;;1.30;;
595;SDS011;19946;49.306;11.350;2023-04-15T01:12:38;1.40;;;1.40;;
595;SDS011;19946;49.306;11.350;2023-04-15T01:15:40;1.20;;;1.20;;
595;SDS011;19946;49.306;11.350;2023-04-15T01:18:42;1.30;;;1.30;;
595;SDS011;19946;49.306;11.350;2023-04-15T01:21:45;1.10;;;1.10;;
595;SDS011;19946;49.306;11.350;2023-04-15T01:24:49;1.20;;;1.20;;
595;SDS011;19946;49.306;11.350;2023-04-15T01:27:55;1.30;;;1.30;;
595;SDS011;19946;49.306;11.350;2023-04-15T01:31:10;1.30;;;1.30;;
595;SDS011;19946;49.306;11.350;2023-04-15T01:34:57;1.23;;;1.23;;
595;SDS011;19946;49.306;11.350;2023-04-15T01:38:07;1.03;;;1.03;;
595;SDS011;19946;49.306;11.350;2023-04-15T01:41:12;1.20;;;1.20;;
595;SDS011;19946;49.306;11.350;2023-04-15T01:44:13;0.90;;;0.90;;
595;SDS011;19946;49.306;11.350;2023-04-15T01:47:14;1.17;;;1.17;;
595;SDS011;19946;49.306;11.350;2023-04-15T02:03:47;1.50;;;1.50;;
595;SDS011;19946;49.306;11.350;2023-04-15T02:10:09;1.60;;;1.60;;
595;SDS011;19946;49.306;11.350;2023-04-15T02:13:13;1.40;;;1.40;;
595;SDS011;19946;49.306;11.350;2023-04-15T02:16:17;1.40;;;1.40;;
595;SDS011;19946;49.306;11.350;2023-04-15T02:19:22;1.80;;;1.80;;
595;SDS011;19946;49.306;11.350;2023-04-15T02:22:23;1.40;;;1.40;;
595;SDS011;19946;49.306;11.350;2023-04-15T02:25:32;1.80;;;1.80;;
595;SDS011;19946;49.306;11.350;2023-04-15T02:28:33;1.50;;;1.50;;
595;SDS011;19946;49.306;11.350;2023-04-15T02:31:36;2.03;;;2.03;;
595;SDS011;19946;49.306;11.350;2023-04-15T02:34:44;2.40;;;2.40;;
595;SDS011;19946;49.306;11.350;2023-04-15T02:37:47;1.60;;;1.60;;
595;SDS011;19946;49.306;11.350;2023-04-15T02:40:48;1.70;;;1.70;;
595;SDS011;19946;49.306;11.350;2023-04-15T02:43:50;1.93;;;1.93;;
595;SDS011;19946;49.306;11.350;2023-04-15T02:46:51;1.90;;;1.90;;
595;SDS011;19946;49.306;11.350;2023-04-15T02:56:28;2.30;;;2.30;;
595;SDS011;19946;49.306;11.350;2023-04-15T02:59:30;2.37;;;2.37;;
595;SDS011;19946;49.306;11.350;2023-04-15T03:02:34;2.10;;;2.10;;
595;SDS011;19946;49.306;11.350;2023-04-15T03:28:36;1.70;;;1.70;;
595;SDS011;19946;49.306;11.350;2023-04-15T03:31:38;1.63;;;1.63;;
595;SDS011;19946;49.306;11.350;2023-04-15T03:34:39;1.70;;;1.70;;
595;SDS011;19946;49.306;11.350;2023-04-15T03:40:56;1.60;;;1.60;;
595;SDS011;19946;49.306;11.350;2023-04-15T03:47:15;1.80;;;1.80;;
595;SDS011;19946;49.306;11.350;2023-04-15T03:50:17;1.50;;;1.50;;
595;SDS011;19946;49.306;11.350;2023-04-15T03:53:19;2.20;;;2.20;;
595;SDS011;19946;49.306;11.350;2023-04-15T03:56:20;2.10;;;2.10;;
595;SDS011;19946;49.306;11.350;2023-04-15T03:59:21;2.30;;;2.30;;
595;SDS011;19946;49.306;11.350;2023-04-15T04:02:21;2.20;;;2.20;;
595;SDS011;19946;49.306;11.350;2023-04-15T04:05:22;1.90;;;1.90;;
595;SDS011;19946;49.306;11.350;2023-04-15T04:08:23;2.00;;;2.00;;
595;SDS011;19946;49.306;11.350;2023-04-15T04:11:26;2.70;;;2.70;;
595;SDS011;19946;49.306;11.350;2023-04-15T04:14:27;2.83;;;2.83;;
595;SDS011;19946;49.306;11.350;2023-04-15T04:17:28;2.20;;;2.20;;
595;SDS011;19946;49.306;11.350;2023-04-15T04:20:30;2.60;;;2.60;;
595;SDS011;19946;49.306;11.350;2023-04-15T04:23:31;2.53;;;2.53;;
595;SDS011;19946;49.306;11.350;2023-04-15T04:26:32;3.20;;;3.20;;
595;SDS011;19946;49.306;11.350;2023-04-15T04:29:32;2.47;;;2.47;;
595;SDS011;19946;49.306;11.350;2023-04-15T04:32:33;1.90;;;1.90;;
595;SDS011;19946;49.306;11.350;2023-04-15T04:35:34;2.30;;;2.30;;
595;SDS011;19946;49.306;11.350;2023-04-15T04:38:36;2.40;;;2.40;;
595;SDS011;19946;49.306;11.350;2023-04-15T04:41:37;2.40;;;2.40;;
595;SDS011;19946;49.306;11.350;2023-04-15T04:44:37;2.30;;;2.30;;
595;SDS011;19946;49.306;11.350;2023-04-15T04:47:38;3.00;;;3.00;;
595;SDS011;19946;49.306;11.350;2023-04-15T04:50:38;3.00;;;3.00;;
595;SDS011;19946;49.306;11.350;2023-04-15T04:53:40;2.70;;;2.70;;
595;SDS011;19946;49.306;11.350;2023-04-15T04:56:44;1.90;;;1.90;;
595;SDS011;19946;49.306;11.350;2023-04-15T04:59:46;1.90;;;1.90;;
595;SDS011;19946;49.306;11.350;2023-04-15T05:02:47;2.10;;;2.10;;
595;SDS011;19946;49.306;11.350;2023-04-15T05:05:47;2.80;;;2.80;;
595;SDS011;19946;49.306;11.350;2023-04-15T05:08:49;2.70;;;2.70;;
595;SDS011;19946;49.306;11.350;2023-04-15T05:11:53;1.90;;;1.90;;
595;SDS011;19946;49.306;11.350;2023-04-15T05:14:53;1.73;;;1.73;;
595;SDS011;19946;49.306;11.350;2023-04-15T05:17:54;1.40;;;1.40;;
595;SDS011;19946;49.306;11.350;2023-04-15T05:20:55;1.50;;;1.50;;
595;SDS011;19946;49.306;11.350;2023-04-15T05:23:57;1.90;;;1.90;;
595;SDS011;19946;49.306;11.350;2023-04-15T05:26:57;1.80;;;1.80;;
595;SDS011;19946;49.306;11.350;2023-04-15T05:29:57;2.00;;;2.00;;
595;SDS011;19946;49.306;11.350;2023-04-15T05:33:00;2.20;;;2.20;;
595;SDS011;19946;49.306;11.350;2023-04-15T05:36:01;2.37;;;2.37;;
595;SDS011;19946;49.306;11.350;2023-04-15T05:39:06;2.20;;;2.20;;
595;SDS011;19946;49.306;11.350;2023-04-15T05:42:09;2.40;;;2.40;;
595;SDS011;19946;49.306;11.350;2023-04-15T05:45:10;2.10;;;2.10;;
595;SDS011;19946;49.306;11.350;2023-04-15T05:48:11;2.57;;;2.57;;
595;SDS011;19946;49.306;11.350;2023-04-15T05:51:14;2.40;;;2.40;;
595;SDS011;19946;49.306;11.350;2023-04-15T05:54:17;2.40;;;2.40;;
595;SDS011;19946;49.306;11.350;2023-04-15T05:57:18;2.70;;;2.70;;
595;SDS011;19946;49.306;11.350;2023-04-15T06:00:18;2.70;;;2.70;;
595;SDS011;19946;49.306;11.350;2023-04-15T06:03:19;2.43;;;2.43;;
595;SDS011;19946;49.306;11.350;2023-04-15T06:06:23;2.30;;;2.30;;
595;SDS011;19946;49.306;11.350;2023-04-15T06:09:24;2.50;;;2.50;;
595;SDS011;19946;49.306;11.350;2023-04-15T06:15:45;2.13;;;2.13;;
595;SDS011;19946;49.306;11.350;2023-04-15T06:49:06;2.33;;;2.33;;
595;SDS011;19946;49.306;11.350;2023-04-15T06:52:09;2.03;;;2.03;;
595;SDS011;19946;49.306;11.350;2023-04-15T06:55:10;2.60;;;2.60;;
595;SDS011;19946;49.306;11.350;2023-04-15T07:01:34;2.63;;;2.63;;
595;SDS011;19946;49.306;11.350;2023-04-15T07:18:20;4.23;;;4.23;;
595;SDS011;19946;49.306;11.350;2023-04-15T07:34:35;2.57;;;2.57;;
595;SDS011;19946;49.306;11.350;2023-04-15T07:41:01;2.40;;;2.40;;
595;SDS011;19946;49.306;11.350;2023-04-15T07:44:05;3.23;;;3.23;;
595;SDS011;19946;49.306;11.350;2023-04-15T07:47:07;4.00;;;4.00;;
595;SDS011;19946;49.306;11.350;2023-04-15T07:50:08;4.63;;;4.63;;
595;SDS011;19946;49.306;11.350;2023-04-15T07:53:10;3.60;;;3.60;;
595;SDS011;19946;49.306;11.350;2023-04-15T08:09:18;4.33;;;4.33;;
595;SDS011;19946;49.306;11.350;2023-04-15T08:12:28;2.80;;;2.80;;
595;SDS011;19946;49.306;11.350;2023-04-15T08:15:30;3.10;;;3.10;;
595;SDS011;19946;49.306;11.350;2023-04-15T08:21:43;3.93;;;3.93;;
595;SDS011;19946;49.306;11.350;2023-04-15T08:24:45;2.27;;;2.27;;
595;SDS011;19946;49.306;11.350;2023-04-15T08:27:54;2.73;;;2.73;;
595;SDS011;19946;49.306;11.350;2023-04-15T08:47:49;4.50;;;4.50;;
595;SDS011;19946;49.306;11.350;2023-04-15T08:50:55;4.67;;;4.67;;
595;SDS011;19946;49.306;11.350;2023-04-15T08:54:15;3.30;;;3.30;;
595;SDS011;19946;49.306;11.350;2023-04-15T08:57:24;2.90;;;2.90;;
595;SDS011;19946;49.306;11.350;2023-04-15T09:10:26;2.20;;;2.20;;
595;SDS011;19946;49.306;11.350;2023-04-15T09:13:27;2.73;;;2.73;;
595;SDS011;19946;49.306;11.350;2023-04-15T09:16:29;2.20;;;2.20;;
595;SDS011;19946;49.306;11.350;2023-04-15T09:19:33;2.30;;;2.30;;
595;SDS011;19946;49.306;11.350;2023-04-15T09:22:34;2.50;;;2.50;;
595;SDS011;19946;49.306;11.350;2023-04-15T09:25:39;3.60;;;3.60;;
595;SDS011;19946;49.306;11.350;2023-04-15T09:45:10;2.83;;;2.83;;
595;SDS011;19946;49.306;11.350;2023-04-15T09:48:19;3.40;;;3.40;;
595;SDS011;19946;49.306;11.350;2023-04-15T09:51:34;3.33;;;3.33;;
595;SDS011;19946;49.306;11.350;2023-04-15T09:54:37;2.37;;;2.37;;
595;SDS011;19946;49.306;11.350;2023-04-15T09:57:38;3.23;;;3.23;;
595;SDS011;19946;49.306;11.350;2023-04-15T10:00:45;1.90;;;1.90;;
595;SDS011;19946;49.306;11.350;2023-04-15T10:03:49;2.20;;;2.20;;
595;SDS011;19946;49.306;11.350;2023-04-15T10:06:51;2.80;;;2.80;;
595;SDS011;19946;49.306;11.350;2023-04-15T10:49:31;2.83;;;2.83;;
595;SDS011;19946;49.306;11.350;2023-04-15T10:52:32;3.30;;;3.30;;
595;SDS011;19946;49.306;11.350;2023-04-15T11:12:34;2.90;;;2.90;;
595;SDS011;19946;49.306;11.350;2023-04-15T11:48:40;3.47;;;3.47;;
595;SDS011;19946;49.306;11.350;2023-04-15T13:07:19;3.67;;;3.67;;
595;SDS011;19946;49.306;11.350;2023-04-15T13:10:23;4.00;;;4.00;;
595;SDS011;19946;49.306;11.350;2023-04-15T13:13:23;4.67;;;4.67;;
595;SDS011;19946;49.306;11.350;2023-04-15T13:16:24;4.33;;;4.33;;
595;SDS011;19946;49.306;11.350;2023-04-15T13:19:28;4.67;;;4.67;;
595;SDS011;19946;49.306;11.350;2023-04-15T13:22:29;2.90;;;2.90;;
595;SDS011;19946;49.306;11.350;2023-04-15T13:25:30;3.40;;;3.40;;
595;SDS011;19946;49.306;11.350;2023-04-15T13:28:31;3.10;;;3.10;;
595;SDS011;19946;49.306;11.350;2023-04-15T13:31:33;3.70;;;3.70;;
595;SDS011;19946;49.306;11.350;2023-04-15T13:34:36;5.43;;;5.43;;
595;SDS011;19946;49.306;11.350;2023-04-15T13:37:39;4.10;;;4.10;;
595;SDS011;19946;49.306;11.350;2023-04-15T13:47:17;5.90;;;5.80;;
595;SDS011;19946;49.306;11.350;2023-04-15T13:50:59;3.30;;;3.30;;
595;SDS011;19946;49.306;11.350;2023-04-15T13:54:02;3.57;;;3.57;;
595;SDS011;19946;49.306;11.350;2023-04-15T13:57:03;3.20;;;3.20;;
595;SDS011;19946;49.306;11.350;2023-04-15T14:00:05;2.57;;;2.57;;
595;SDS011;19946;49.306;11.350;2023-04-15T14:03:06;2.80;;;2.80;;
595;SDS011;19946;49.306;11.350;2023-04-15T14:25:49;3.47;;;3.47;;
595;SDS011;19946;49.306;11.350;2023-04-15T14:28:51;2.00;;;2.00;;
595;SDS011;19946;49.306;11.350;2023-04-15T14:31:56;2.20;;;2.20;;
595;SDS011;19946;49.306;11.350;2023-04-15T14:44:52;3.77;;;3.77;;
595;SDS011;19946;49.306;11.350;2023-04-15T14:47:56;6.23;;;6.13;;
595;SDS011;19946;49.306;11.350;2023-04-15T15:07:28;3.40;;;3.40;;
595;SDS011;19946;49.306;11.350;2023-04-15T15:20:20;2.43;;;2.43;;
595;SDS011;19946;49.306;11.350;2023-04-15T15:26:50;2.73;;;2.73;;
595;SDS011;19946;49.306;11.350;2023-04-15T15:29:51;2.50;;;2.50;;
595;SDS011;19946;49.306;11.350;2023-04-15T15:32:52;2.80;;;2.80;;
595;SDS011;19946;49.306;11.350;2023-04-15T15:35:52;3.60;;;3.60;;
595;SDS011;19946;49.306;11.350;2023-04-15T15:38:53;2.63;;;2.63;;
595;SDS011;19946;49.306;11.350;2023-04-15T15:41:55;2.90;;;2.90;;
595;SDS011;19946;49.306;11.350;2023-04-15T15:44:58;2.97;;;2.97;;
595;SDS011;19946;49.306;11.350;2023-04-15T15:51:17;3.10;;;3.10;;
595;SDS011;19946;49.306;11.350;2023-04-15T15:54:22;3.20;;;3.20;;
595;SDS011;19946;49.306;11.350;2023-04-15T15:57:32;3.47;;;3.47;;
595;SDS011;19946;49.306;11.350;2023-04-15T16:00:33;4.73;;;4.73;;
595;SDS011;19946;49.306;11.350;2023-04-15T16:13:40;3.40;;;3.40;;
595;SDS011;19946;49.306;11.350;2023-04-15T16:16:42;4.83;;;4.83;;
595;SDS011;19946;49.306;11.350;2023-04-15T16:19:42;4.10;;;4.10;;
595;SDS011;19946;49.306;11.350;2023-04-15T16:22:43;2.80;;;2.80;;
595;SDS011;19946;49.306;11.350;2023-04-15T16:25:44;3.60;;;3.60;;
595;SDS011;19946;49.306;11.350;2023-04-15T16:28:47;2.60;;;2.60;;
595;SDS011;19946;49.306;11.350;2023-04-15T16:31:48;2.40;;;2.40;;
595;SDS011;19946;49.306;11.350;2023-04-15T16:34:51;2.70;;;2.70;;
595;SDS011;19946;49.306;11.350;2023-04-15T16:37:53;2.80;;;2.80;;
595;SDS011;19946;49.306;11.350;2023-04-15T16:44:12;2.07;;;2.07;;
595;SDS011;19946;49.306;11.350;2023-04-15T16:50:48;2.50;;;2.50;;
595;SDS011;19946;49.306;11.350;2023-04-15T16:57:36;3.20;;;3.20;;
595;SDS011;19946;49.306;11.350;2023-04-15T17:00:36;4.03;;;4.03;;
595;SDS011;19946;49.306;11.350;2023-04-15T17:03:37;4.50;;;4.50;;
595;SDS011;19946;49.306;11.350;2023-04-15T17:06:43;4.23;;;4.23;;
595;SDS011;19946;49.306;11.350;2023-04-15T17:09:47;3.50;;;3.50;;
595;SDS011;19946;49.306;11.350;2023-04-15T17:12:49;3.37;;;3.37;;
595;SDS011;19946;49.306;11.350;2023-04-15T17:15:57;3.70;;;3.70;;
595;SDS011;19946;49.306;11.350;2023-04-15T17:18:58;3.20;;;3.20;;
595;SDS011;19946;49.306;11.350;2023-04-15T17:22:12;3.40;;;3.40;;
595;SDS011;19946;49.306;11.350;2023-04-15T17:26:38;2.80;;;2.80;;
595;SDS011;19946;49.306;11.350;2023-04-15T17:36:36;2.00;;;2.00;;
595;SDS011;19946;49.306;11.350;2023-04-15T17:39:37;2.00;;;2.00;;
595;SDS011;19946;49.306;11.350;2023-04-15T17:42:39;1.70;;;1.70;;
595;SDS011;19946;49.306;11.350;2023-04-15T17:45:41;1.70;;;1.70;;
595;SDS011;19946;49.306;11.350;2023-04-15T17:48:42;1.77;;;1.77;;
595;SDS011;19946;49.306;11.350;2023-04-15T17:55:03;2.00;;;2.00;;
595;SDS011;19946;49.306;11.350;2023-04-15T17:58:05;1.80;;;1.80;;
595;SDS011;19946;49.306;11.350;2023-04-15T18:07:43;1.30;;;1.30;;
595;SDS011;19946;49.306;11.350;2023-04-15T18:10:43;1.20;;;1.20;;
595;SDS011;19946;49.306;11.350;2023-04-15T18:13:44;1.00;;;1.00;;
595;SDS011;19946;49.306;11.350;2023-04-15T18:20:04;1.00;;;1.00;;
595;SDS011;19946;49.306;11.350;2023-04-15T18:23:05;1.10;;;1.10;;
595;SDS011;19946;49.306;11.350;2023-04-15T18:26:06;0.70;;;0.70;;
595;SDS011;19946;49.306;11.350;2023-04-15T18:29:06;0.80;;;0.80;;
595;SDS011;19946;49.306;11.350;2023-04-15T18:32:10;0.80;;;0.80;;
595;SDS011;19946;49.306;11.350;2023-04-15T18:35:11;0.80;;;0.80;;
595;SDS011;19946;49.306;11.350;2023-04-15T18:38:12;0.70;;;0.70;;
595;SDS011;19946;49.306;11.350;2023-04-15T18:44:34;0.80;;;0.80;;
595;SDS011;19946;49.306;11.350;2023-04-15T18:50:51;0.70;;;0.70;;
595;SDS011;19946;49.306;11.350;2023-04-15T18:53:58;0.70;;;0.70;;
595;SDS011;19946;49.306;11.350;2023-04-15T19:00:16;0.80;;;0.80;;
595;SDS011;19946;49.306;11.350;2023-04-15T19:03:16;0.80;;;0.80;;
595;SDS011;19946;49.306;11.350;2023-04-15T19:06:19;0.90;;;0.90;;
595;SDS011;19946;49.306;11.350;2023-04-15T19:09:20;0.70;;;0.70;;
595;SDS011;19946;49.306;11.350;2023-04-15T19:12:22;0.70;;;0.70;;
595;SDS011;19946;49.306;11.350;2023-04-15T19:15:22;0.87;;;0.87;;
595;SDS011;19946;49.306;11.350;2023-04-15T19:18:25;0.90;;;0.90;;
595;SDS011;19946;49.306;11.350;2023-04-15T19:21:28;1.00;;;1.00;;
595;SDS011;19946;49.306;11.350;2023-04-15T19:24:30;1.10;;;1.10;;
595;SDS011;19946;49.306;11.350;2023-04-15T19:30:57;1.00;;;1.00;;
595;SDS011;19946;49.306;11.350;2023-04-15T19:37:15;0.80;;;0.80;;
595;SDS011;19946;49.306;11.350;2023-04-15T19:40:16;0.87;;;0.87;;
595;SDS011;19946;49.306;11.350;2023-04-15T19:43:17;0.70;;;0.70;;
595;SDS011;19946;49.306;11.350;2023-04-15T19:46:18;0.60;;;0.60;;
595;SDS011;19946;49.306;11.350;2023-04-15T19:49:19;0.70;;;0.70;;
595;SDS011;19946;49.306;11.350;2023-04-15T19:52:22;0.80;;;0.80;;
595;SDS011;19946;49.306;11.350;2023-04-15T19:55:22;0.80;;;0.80;;
595;SDS011;19946;49.306;11.350;2023-04-15T19:58:23;0.70;;;0.70;;
595;SDS011;19946;49.306;11.350;2023-04-15T20:01:23;0.87;;;0.87;;
595;SDS011;19946;49.306;11.350;2023-04-15T20:04:24;0.80;;;0.80;;
595;SDS011;19946;49.306;11.350;2023-04-15T20:07:24;0.80;;;0.80;;
595;SDS011;19946;49.306;11.350;2023-04-15T20:10:25;1.00;;;1.00;;
595;SDS011;19946;49.306;11.350;2023-04-15T20:13:27;0.80;;;0.80;;
595;SDS011;19946;49.306;11.350;2023-04-15T20:16:29;0.80;;;0.80;;
595;SDS011;19946;49.306;11.350;2023-04-15T20:19:31;0.87;;;0.87;;
595;SDS011;19946;49.306;11.350;2023-04-15T20:22:50;0.90;;;0.90;;
595;SDS011;19946;49.306;11.350;2023-04-15T20:25:52;1.00;;;1.00;;
595;SDS011;19946;49.306;11.350;2023-04-15T20:29:18;0.80;;;0.80;;
595;SDS011;19946;49.306;11.350;2023-04-15T20:32:23;0.80;;;0.80;;
595;SDS011;19946;49.306;11.350;2023-04-15T20:35:44;0.90;;;0.90;;
595;SDS011;19946;49.306;11.350;2023-04-15T20:38:52;0.90;;;0.90;;
595;SDS011;19946;49.306;11.350;2023-04-15T20:42:15;0.80;;;0.80;;
595;SDS011;19946;49.306;11.350;2023-04-15T20:45:43;0.80;;;0.80;;
595;SDS011;19946;49.306;11.350;2023-04-15T20:48:59;0.90;;;0.90;;
595;SDS011;19946;49.306;11.350;2023-04-15T20:52:38;0.80;;;0.80;;
595;SDS011;19946;49.306;11.350;2023-04-15T20:56:20;0.70;;;0.70;;
595;SDS011;19946;49.306;11.350;2023-04-15T20:59:28;0.70;;;0.70;;
595;SDS011;19946;49.306;11.350;2023-04-15T21:02:34;0.77;;;0.77;;
595;SDS011;19946;49.306;11.350;2023-04-15T21:06:13;0.90;;;0.90;;
595;SDS011;19946;49.306;11.350;2023-04-15T21:09:41;1.07;;;1.07;;
595;SDS011;19946;49.306;11.350;2023-04-15T21:12:49;0.80;;;0.80;;
595;SDS011;19946;49.306;11.350;2023-04-15T21:16:30;0.70;;;0.70;;
595;SDS011;19946;49.306;11.350;2023-04-15T21:19:57;0.70;;;0.70;;
595;SDS011;19946;49.306;11.350;2023-04-15T21:23:06;0.80;;;0.80;;
595;SDS011;19946;49.306;11.350;2023-04-15T21:26:33;0.80;;;0.80;;
595;SDS011;19946;49.306;11.350;2023-04-15T21:29:51;0.83;;;0.83;;
595;SDS011;19946;49.306;11.350;2023-04-15T21:33:05;0.70;;;0.70;;
595;SDS011;19946;49.306;11.350;2023-04-15T21:36:32;0.70;;;0.70;;
595;SDS011;19946;49.306;11.350;2023-04-15T21:39:39;0.80;;;0.80;;
595;SDS011;19946;49.306;11.350;2023-04-15T21:42:46;0.90;;;0.90;;
595;SDS011;19946;49.306;11.350;2023-04-15T21:45:55;1.00;;;1.00;;
595;SDS011;19946;49.306;11.350;2023-04-15T21:48:59;0.90;;;0.90;;
595;SDS011;19946;49.306;11.350;2023-04-15T21:52:17;0.70;;;0.70;;
595;SDS011;19946;49.306;11.350;2023-04-15T21:55:26;1.00;;;1.00;;
595;SDS011;19946;49.306;11.350;2023-04-15T21:58:28;1.10;;;1.10;;
595;SDS011;19946;49.306;11.350;2023-04-15T22:01:44;1.00;;;1.00;;
595;SDS011;19946;49.306;11.350;2023-04-15T22:04:50;0.90;;;0.90;;
595;SDS011;19946;49.306;11.350;2023-04-15T22:08:37;1.50;;;1.50;;
595;SDS011;19946;49.306;11.350;2023-04-15T22:11:53;1.43;;;1.43;;
595;SDS011;19946;49.306;11.350;2023-04-15T22:15:02;1.90;;;1.90;;
595;SDS011;19946;49.306;11.350;2023-04-15T22:18:10;1.20;;;1.20;;
595;SDS011;19946;49.306;11.350;2023-04-15T22:21:14;1.30;;;1.30;;
595;SDS011;19946;49.306;11.350;2023-04-15T22:24:17;1.30;;;1.30;;
595;SDS011;19946;49.306;11.350;2023-04-15T22:27:27;1.60;;;1.60;;
595;SDS011;19946;49.306;11.350;2023-04-15T22:30:55;1.60;;;1.60;;
595;SDS011;19946;49.306;11.350;2023-04-15T22:33:57;1.60;;;1.60;;
595;SDS011;19946;49.306;11.350;2023-04-15T22:36:58;1.60;;;1.60;;
595;SDS011;19946;49.306;11.350;2023-04-15T22:40:00;1.80;;;1.80;;
595;SDS011;19946;49.306;11.350;2023-04-15T22:43:01;1.70;;;1.70;;
595;SDS011;19946;49.306;11.350;2023-04-15T22:46:02;2.00;;;2.00;;
595;SDS011;19946;49.306;11.350;2023-04-15T22:49:07;2.00;;;2.00;;
595;SDS011;19946;49.306;11.350;2023-04-15T22:52:08;1.60;;;1.60;;
595;SDS011;19946;49.306;11.350;2023-04-15T22:55:17;1.30;;;1.30;;
595;SDS011;19946;49.306;11.350;2023-04-15T22:58:20;1.97;;;1.97;;
595;SDS011;19946;49.306;11.350;2023-04-15T23:01:24;1.70;;;1.70;;
595;SDS011;19946;49.306;11.350;2023-04-15T23:04:47;1.60;;;1.60;;
595;SDS011;19946;49.306;11.350;2023-04-15T23:07:49;2.10;;;2.10;;
595;SDS011;19946;49.306;11.350;2023-04-15T23:10:52;1.40;;;1.40;;
595;SDS011;19946;49.306;11.350;2023-04-15T23:13:55;1.70;;;1.70;;
595;SDS011;19946;49.306;11.350;2023-04-15T23:16:56;1.60;;;1.60;;
595;SDS011;19946;49.306;11.350;2023-04-15T23:19:58;2.10;;;2.10;;
595;SDS011;19946;49.306;11.350;2023-04-15T23:22:59;1.90;;;1.90;;
595;SDS011;19946;49.306;11.350;2023-04-15T23:26:02;1.90;;;1.90;;
595;SDS011;19946;49.306;11.350;2023-04-15T23:29:06;1.33;;;1.33;;
595;SDS011;19946;49.306;11.350;2023-04-15T23:32:09;1.87;;;1.87;;
595;SDS011;19946;49.306;11.350;2023-04-15T23:35:11;2.40;;;2.40;;
595;SDS011;19946;49.306;11.350;2023-04-15T23:38:15;2.30;;;2.30;;
595;SDS011;19946;49.306;11.350;2023-04-15T23:41:17;2.20;;;2.20;;
595;SDS011;19946;49.306;11.350;2023-04-15T23:44:20;2.53;;;2.53;;
595;SDS011;19946;49.306;11.350;2023-04-15T23:47:25;2.00;;;2.00;;
595;SDS011;19946;49.306;11.350;2023-04-15T23:50:26;2.40;;;2.40;;
595;SDS011;19946;49.306;11.350;2023-04-15T23:53:29;2.70;;;2.70;;
595;SDS011;19946;49.306;11.350;2023-04-15T23:56:34;2.50;;;2.50;;
595;SDS011;19946;49.306;11.350;2023-04-15T23:59:35;2.20;;;2.20;;
